Time;durP1;ratioP1;P1;durP2;ratioP2;P2;SDS_P1;SDS_P2;PMS_P1;PMS_P2;Temp;Humidity;BMP_temperature;BMP_pressure;BME280_temperature;BME280_humidity;BME280_pressure;Samples;Min_cycle;Max_cycle;Signal;HPM_P1;HPM_P2
2022/09/24 00:01:18;;;;;;;3.60;3.40;;;;;;;10.18;100.00;99884.00;1678098;84;21541;-75
2022/09/24 00:03:55;;;;;;;4.00;3.70;;;;;;;10.20;100.00;99885.95;1674219;84;21018;-74
2022/09/24 00:06:22;;;;;;;3.77;3.42;;;;;;;10.16;100.00;99881.53;1644206;86;21561;-75
2022/09/24 00:08:56;;;;;;;6.87;4.87;;;;;;;10.12;100.00;99880.28;1649138;85;21002;-74
2022/09/24 00:11:26;;;;;;;8.17;3.60;;;;;;;10.09;100.00;99880.66;1661735;85;20998;-76
2022/09/24 00:13:53;;;;;;;6.70;4.53;;;;;;;10.08;100.00;99878.52;1652244;85;21050;-75
2022/09/24 00:16:22;;;;;;;4.28;3.98;;;;;;;10.04;100.00;99878.60;1659545;85;21579;-75
2022/09/24 00:18:48;;;;;;;3.70;3.40;;;;;;;10.01;100.00;99875.50;1652675;85;21073;-75
2022/09/24 00:21:20;;;;;;;;;;;;;;;9.98;100.00;99878.55;1654198;85;21018;-76
2022/09/24 00:23:57;;;;;;;3.60;3.40;;;;;;;9.97;100.00;99876.41;1653002;85;20186;-76
2022/09/24 00:29:15;;;;;;;4.35;3.95;;;;;;;9.98;100.00;99873.22;1650863;85;21576;-75
2022/09/24 00:31:42;;;;;;;3.80;3.40;;;;;;;9.98;100.00;99867.38;1651576;85;21574;-74
2022/09/24 00:34:11;;;;;;;3.47;3.17;;;;;;;9.96;100.00;99869.94;1651665;85;20977;-74
2022/09/24 00:36:38;;;;;;;4.07;3.77;;;;;;;9.98;100.00;99866.56;1648377;85;21029;-74
2022/09/24 00:39:05;;;;;;;3.80;3.60;;;;;;;10.00;100.00;99865.38;1653527;85;21070;-74
2022/09/24 00:41:36;;;;;;;4.10;3.73;;;;;;;10.03;100.00;99866.30;1651229;85;21517;-74
2022/09/24 00:44:44;;;;;;;3.20;3.00;;;;;;;10.04;100.00;99861.78;1644840;85;21216;-73
2022/09/24 00:47:28;;;;;;;3.67;3.37;;;;;;;10.05;100.00;99866.10;1643417;86;21132;-74
2022/09/24 00:50:12;;;;;;;3.83;3.63;;;;;;;9.99;100.00;99856.24;1643927;86;21473;-76
2022/09/24 00:52:57;;;;;;;4.07;3.70;;;;;;;9.96;100.00;99855.30;1643308;84;21030;-76
2022/09/24 00:55:25;;;;;;;4.73;4.43;;;;;;;9.97;100.00;99852.95;1642723;86;21581;-75
2022/09/24 00:57:59;;;;;;;3.97;3.53;;;;;;;9.94;100.00;99854.16;1641279;86;21030;-75
2022/09/24 01:00:26;;;;;;;3.17;2.97;;;;;;;9.91;100.00;99855.89;1629978;86;20986;-75
2022/09/24 01:02:59;;;;;;;3.83;3.40;;;;;;;9.90;100.00;99853.72;1636683;86;21065;-74
2022/09/24 01:05:25;;;;;;;3.87;3.50;;;;;;;9.93;100.00;99856.52;1648946;86;21001;-76
2022/09/24 01:07:52;;;;;;;3.47;3.27;;;;;;;9.93;100.00;99852.01;1670363;84;21029;-75
2022/09/24 01:10:46;;;;;;;3.80;3.60;;;;;;;9.95;100.00;99849.16;1640177;85;20979;-74
2022/09/24 01:12:57;;;;;;;3.43;3.23;;;;;;;9.94;100.00;99857.66;1623903;87;21055;-74
2022/09/24 01:15:31;;;;;;;13.77;4.70;;;;;;;9.94;100.00;99854.16;1661563;86;21036;-75
2022/09/24 01:18:10;;;;;;;3.73;3.43;;;;;;;9.91;100.00;99852.72;1656930;86;21151;-75
2022/09/24 01:20:51;;;;;;;3.17;3.07;;;;;;;9.92;100.00;99849.53;1668108;85;21023;-74
2022/09/24 01:23:51;;;;;;;3.80;3.60;;;;;;;9.92;100.00;99849.02;1657820;85;21019;-75
2022/09/24 01:26:40;;;;;;;2.77;2.47;;;;;;;9.91;100.00;99853.23;1683118;85;21106;-75
2022/09/24 01:29:44;;;;;;;3.93;3.40;;;;;;;9.87;100.00;99855.95;1684840;85;21022;-73
2022/09/24 01:32:37;;;;;;;4.00;3.63;;;;;;;9.85;100.00;99851.33;1684196;85;21007;-74
2022/09/24 01:35:24;;;;;;;4.37;4.07;;;;;;;9.83;100.00;99848.05;1681965;84;21239;-76
2022/09/24 01:37:55;;;;;;;3.98;3.62;;;;;;;9.80;100.00;99847.13;1662816;84;21498;-74
2022/09/24 01:40:25;;;;;;;3.87;3.30;;;;;;;9.79;100.00;99849.45;1685313;84;22292;-76
2022/09/24 01:42:54;;;;;;;3.67;3.47;;;;;;;9.78;100.00;99851.30;1674290;84;21066;-74
2022/09/24 01:45:21;;;;;;;4.93;4.63;;;;;;;9.76;100.00;99846.69;1683729;84;21093;-74
2022/09/24 01:47:48;;;;;;;4.00;3.63;;;;;;;9.74;100.00;99845.55;1682492;84;21106;-73
2022/09/24 01:50:17;;;;;;;3.47;3.27;;;;;;;9.75;100.00;99851.69;1664557;84;21121;-74
2022/09/24 01:52:58;;;;;;;4.13;3.93;;;;;;;9.77;100.00;99850.16;1684386;82;21047;-74
2022/09/24 01:55:29;;;;;;;4.27;4.03;;;;;;;9.78;100.00;99848.64;1681847;84;21573;-74
2022/09/24 01:58:10;;;;;;;4.10;3.70;;;;;;;9.78;100.00;99850.48;1679905;84;21049;-75
2022/09/24 02:00:41;;;;;;;4.83;3.80;;;;;;;9.77;100.00;99850.16;1656557;85;21225;-74
2022/09/24 02:03:15;;;;;;;4.50;3.73;;;;;;;9.78;100.00;99851.30;1677268;84;21136;-73
2022/09/24 02:05:57;;;;;;;3.57;3.37;;;;;;;9.78;100.00;99845.98;1671140;85;21081;-74
2022/09/24 02:08:32;;;;;;;7.53;3.70;;;;;;;9.76;100.00;99848.02;1647513;85;22598;-74
2022/09/24 02:11:21;;;;;;;3.80;3.50;;;;;;;9.77;100.00;99852.31;1632085;86;21027;-72
2022/09/24 02:14:11;;;;;;;3.77;3.57;;;;;;;9.77;100.00;99857.63;1639436;85;20990;-74
2022/09/24 02:16:48;;;;;;;3.17;2.93;;;;;;;9.75;100.00;99851.17;1625487;85;21073;-73
2022/09/24 02:19:18;;;;;;;;;;;;;;;9.72;100.00;99853.42;1651356;85;21664;-78
2022/09/24 02:21:45;;;;;;;4.40;4.07;;;;;;;9.71;100.00;99849.10;1634837;85;20133;-73
2022/09/24 02:24:41;;;;;;;3.73;3.40;;;;;;;9.67;100.00;99859.83;1634820;85;20994;-75
2022/09/24 02:27:08;;;;;;;3.07;2.97;;;;;;;9.68;100.00;99861.45;1578155;89;21108;-75
2022/09/24 02:29:35;;;;;;;3.80;3.60;;;;;;;9.68;100.00;99858.80;1600975;87;21032;-74
2022/09/24 02:32:05;;;;;;;4.37;3.93;;;;;;;9.69;100.00;99861.78;1643113;83;21101;-73
2022/09/24 02:34:37;;;;;;;4.33;4.00;;;;;;;9.72;100.00;99865.40;1694846;83;20998;-74
2022/09/24 02:37:10;;;;;;;5.67;4.60;;;;;;;9.72;100.00;99857.41;1675948;83;20967;-75
2022/09/24 02:39:37;;;;;;;5.37;4.87;;;;;;;9.73;100.00;99863.84;1650059;85;21040;-74
2022/09/24 02:42:09;;;;;;;4.90;3.93;;;;;;;9.75;100.00;99864.47;1641882;85;21180;-75
2022/09/24 02:44:36;;;;;;;4.53;4.13;;;;;;;9.75;100.00;99862.33;1651456;85;21118;-73
2022/09/24 02:47:03;;;;;;;;;;;;;;;9.70;100.00;99863.41;1660963;85;21026;-73
2022/09/24 02:49:30;;;;;;;3.75;3.45;;;;;;;9.65;100.00;99865.85;1661070;85;20138;-75
2022/09/24 02:51:56;;;;;;;2.87;2.77;;;;;;;9.55;100.00;99867.02;1649131;85;20995;-76
2022/09/24 02:54:23;;;;;;;;;;;;;;;9.58;100.00;99858.33;1659354;85;21121;-75
2022/09/24 02:56:51;;;;;;;;;;;;;;;9.62;100.00;99862.23;1657501;85;20141;-75
2022/09/24 02:59:22;;;;;;;3.42;2.95;;;;;;;9.61;100.00;99869.92;1657977;85;20113;-74
2022/09/24 03:01:46;;;;;;;3.50;3.17;;;;;;;9.57;100.00;99867.31;1646367;85;21007;-75
2022/09/24 03:04:15;;;;;;;3.00;2.80;;;;;;;9.57;100.00;99866.83;1664268;85;21519;-74
2022/09/24 03:06:42;;;;;;;3.20;3.00;;;;;;;9.59;100.00;99868.78;1649804;86;21066;-76
2022/09/24 03:09:11;;;;;;;3.07;2.87;;;;;;;9.62;100.00;99872.36;1631290;86;21010;-75
2022/09/24 03:11:38;;;;;;;5.20;3.60;;;;;;;9.60;100.00;99865.60;1662474;85;21475;-78
2022/09/24 03:14:06;;;;;;;3.10;3.00;;;;;;;9.61;100.00;99872.59;1657473;85;20998;-75
2022/09/24 03:16:32;;;;;;;;;;;;;;;9.64;100.00;99878.31;1667823;85;21145;-75
2022/09/24 03:19:02;;;;;;;3.87;3.57;;;;;;;9.66;100.00;99876.31;1671424;84;20121;-75
2022/09/24 03:21:28;;;;;;;3.60;3.40;;;;;;;9.60;100.00;99873.59;1678883;84;20982;-74
2022/09/24 03:23:55;;;;;;;6.83;3.22;;;;;;;9.58;100.00;99874.29;1651473;85;21140;-75
2022/09/24 03:26:23;;;;;;;5.87;3.77;;;;;;;9.58;100.00;99882.27;1658667;85;21018;-75
2022/09/24 03:28:50;;;;;;;3.33;3.20;;;;;;;9.33;100.00;99834.81;1659637;85;21026;-75
2022/09/24 03:31:17;;;;;;;3.90;3.60;;;;;;;9.56;100.00;99871.81;1659208;85;21007;-75
2022/09/24 03:33:47;;;;;;;2.93;2.83;;;;;;;9.55;100.00;99871.00;1659717;85;21034;-75
2022/09/24 03:36:27;;;;;;;4.77;3.73;;;;;;;9.55;100.00;99874.99;1651287;85;22315;-76
2022/09/24 03:38:56;;;;;;;3.37;3.07;;;;;;;9.56;100.00;99875.81;1652850;85;21165;-75
2022/09/24 03:41:26;;;;;;;3.67;3.47;;;;;;;9.55;100.00;99876.33;1658238;85;20964;-76
2022/09/24 03:43:53;;;;;;;3.03;2.90;;;;;;;9.56;100.00;99871.81;1659768;85;21102;-75
2022/09/24 03:46:19;;;;;;;3.47;3.27;;;;;;;9.56;100.00;99870.48;1652041;85;21062;-75
2022/09/24 03:48:46;;;;;;;3.30;3.10;;;;;;;9.59;100.00;99871.92;1659819;85;21066;-75
2022/09/24 03:51:20;;;;;;;2.60;2.50;;;;;;;9.58;100.00;99872.95;1651510;85;21094;-75
2022/09/24 03:53:47;;;;;;;3.13;2.93;;;;;;;9.60;100.00;99873.59;1655735;85;21293;-75
2022/09/24 03:56:14;;;;;;;3.97;3.60;;;;;;;9.59;100.00;99871.92;1656387;85;21554;-75
2022/09/24 03:58:46;;;;;;;3.10;2.90;;;;;;;9.59;100.00;99875.91;1656663;85;21038;-74
2022/09/24 04:01:11;;;;;;;3.50;3.27;;;;;;;9.59;100.00;99874.59;1658391;85;20999;-75
2022/09/24 04:03:38;;;;;;;4.42;4.03;;;;;;;9.61;100.00;99879.23;1670033;84;21029;-74
2022/09/24 04:06:06;;;;;;;4.80;4.50;;;;;;;9.60;100.00;99877.58;1666065;84;20998;-74
2022/09/24 04:08:34;;;;;;;5.20;3.87;;;;;;;9.57;100.00;99876.63;1651015;84;21035;-75
2022/09/24 04:11:02;;;;;;;5.10;4.60;;;;;;;9.57;100.00;99874.80;1648730;86;21130;-72
2022/09/24 04:13:29;;;;;;;3.83;3.63;;;;;;;9.58;100.00;99879.61;1603959;87;21046;-74
2022/09/24 04:16:02;;;;;;;3.77;3.50;;;;;;;9.59;100.00;99878.58;1647982;85;21083;-73
2022/09/24 04:18:28;;;;;;;3.57;3.27;;;;;;;9.62;100.00;99877.69;1638719;85;21060;-73
2022/09/24 04:20:59;;;;;;;2.45;2.35;;;;;;;9.65;100.00;99880.48;1676168;84;21032;-74
2022/09/24 04:23:27;;;;;;;4.23;3.90;;;;;;;9.69;100.00;99884.41;1674682;84;21500;-73
2022/09/24 04:25:53;;;;;;;4.23;3.33;;;;;;;9.70;100.00;99884.70;1689778;83;20965;-73
2022/09/24 04:28:19;;;;;;;4.03;3.83;;;;;;;9.72;100.00;99885.36;1685351;84;21012;-71
2022/09/24 04:30:46;;;;;;;5.20;3.80;;;;;;;9.73;100.00;99882.48;1669242;84;21040;-73
2022/09/24 04:33:14;;;;;;;3.87;3.50;;;;;;;9.72;100.00;99881.37;1682841;84;21221;-72
2022/09/24 04:35:41;;;;;;;3.80;3.50;;;;;;;9.72;100.00;99886.17;1682354;84;21040;-73
2022/09/24 04:38:07;;;;;;;4.78;3.70;;;;;;;9.74;100.00;99881.99;1696978;83;21030;-72
2022/09/24 04:40:35;;;;;;;3.40;3.20;;;;;;;9.74;100.00;99882.80;1699162;83;21602;-71
2022/09/24 04:43:02;;;;;;;;;;;;;;;9.77;100.00;99878.92;1685049;83;21028;-72
2022/09/24 04:45:28;;;;;;;3.83;3.62;;;;;;;9.78;100.00;99881.10;1697458;83;21014;-73
2022/09/24 04:47:56;;;;;;;;;;;;;;;9.74;100.00;99884.14;1707946;83;21533;-73
2022/09/24 04:50:28;;;;;;;3.70;3.40;;;;;;;9.77;100.00;99888.76;1696699;83;20108;-73
2022/09/24 04:52:55;;;;;;;4.60;4.20;;;;;;;9.74;100.00;99888.65;1689911;83;21094;-72
2022/09/24 04:55:22;;;;;;;5.80;3.80;;;;;;;9.75;100.00;99888.42;1696407;84;21098;-72
2022/09/24 04:57:49;;;;;;;4.57;3.57;;;;;;;9.80;100.00;99887.05;1686162;82;21558;-72
2022/09/24 05:00:19;;;;;;;3.57;3.37;;;;;;;9.81;100.00;99889.48;1701920;83;21042;-72
2022/09/24 05:02:47;;;;;;;4.20;3.90;;;;;;;9.81;100.00;99886.02;1701737;83;20990;-73
2022/09/24 05:05:14;;;;;;;4.63;4.13;;;;;;;9.77;100.00;99885.58;1695240;83;21585;-72
2022/09/24 05:07:43;;;;;;;;;;;;;;;9.74;100.00;99876.67;1702232;83;21090;-71
2022/09/24 05:10:09;;;;;;;5.03;4.63;;;;;;;9.73;100.00;99877.16;1699567;83;20199;-71
2022/09/24 05:12:36;;;;;;;5.17;4.55;;;;;;;9.36;100.00;99826.42;1701701;83;21105;-71
2022/09/24 05:15:05;;;;;;;4.97;3.70;;;;;;;9.75;100.00;99883.11;1708413;83;21046;-72
2022/09/24 05:17:32;;;;;;;4.20;3.90;;;;;;;9.80;100.00;99882.54;1697756;83;21042;-74
2022/09/24 05:20:00;;;;;;;4.50;4.20;;;;;;;9.82;100.00;99887.67;1696600;83;21026;-75
2022/09/24 05:22:26;;;;;;;6.13;3.53;;;;;;;9.81;100.00;99888.16;1705887;82;21026;-73
2022/09/24 05:24:53;;;;;;;;;;;;;;;9.82;100.00;99887.16;1702767;83;21152;-72
2022/09/24 05:27:20;;;;;;;4.07;3.70;;;;;;;9.85;100.00;99890.77;1690515;83;20491;-71
2022/09/24 05:29:47;;;;;;;5.10;4.30;;;;;;;9.82;100.00;99892.48;1695088;82;21018;-72
2022/09/24 05:32:17;;;;;;;4.62;4.33;;;;;;;9.84;100.00;99891.78;1700257;83;21340;-73
2022/09/24 05:34:44;;;;;;;4.20;3.40;;;;;;;9.88;100.00;99897.54;1695785;83;21038;-74
2022/09/24 05:37:13;;;;;;;3.70;3.50;;;;;;;9.89;100.00;99890.69;1678496;83;21062;-71
2022/09/24 05:39:39;;;;;;;3.43;3.23;;;;;;;9.93;99.77;99895.13;1664448;84;21169;-72
2022/09/24 05:42:07;;;;;;;;;;;;;;;9.94;99.65;99894.94;1646492;85;21035;-74
2022/09/24 05:44:33;;;;;;;;;;;;;;;9.98;99.64;99899.84;1656246;85;20141;-72
2022/09/24 05:46:59;;;;;;;3.23;2.47;;;;;;;9.97;99.39;99883.58;1647440;86;20456;-73
2022/09/24 05:49:26;;;;;;;3.17;2.80;;;;;;;9.95;99.34;99895.75;1639798;87;21518;-79
2022/09/24 05:51:52;;;;;;;3.42;3.12;;;;;;;9.98;99.01;99884.69;1653660;85;20995;-79
2022/09/24 05:54:19;;;;;;;3.37;2.95;;;;;;;10.03;98.91;99888.11;1623212;87;21182;-77
2022/09/24 05:56:46;;;;;;;10.32;4.20;;;;;;;10.06;98.91;99883.73;1610732;86;21084;-77
2022/09/24 05:59:13;;;;;;;3.17;2.60;;;;;;;10.11;98.74;99883.95;1647391;86;21559;-78
2022/09/24 06:01:40;;;;;;;2.60;2.40;;;;;;;10.18;98.56;99882.15;1611602;86;21055;-79
2022/09/24 06:04:08;;;;;;;2.15;1.87;;;;;;;10.25;98.32;99879.53;1680020;84;21079;-76
2022/09/24 06:06:36;;;;;;;1.70;1.60;;;;;;;10.33;97.84;99886.05;1618070;86;20998;-79
2022/09/24 06:09:03;;;;;;;2.35;2.17;;;;;;;10.39;97.47;99887.09;1610604;87;21053;-78
2022/09/24 06:11:35;;;;;;;2.60;2.08;;;;;;;10.42;96.75;99885.38;1631504;86;21242;-79
2022/09/24 06:14:03;;;;;;;1.47;1.37;;;;;;;10.47;96.92;99892.25;1669392;84;21687;-78
2022/09/24 06:16:32;;;;;;;2.00;1.90;;;;;;;10.50;96.79;99891.86;1669396;84;21607;-78
2022/09/24 06:19:01;;;;;;;2.77;2.67;;;;;;;10.58;96.50;99896.20;1655391;84;21010;-82
2022/09/24 06:21:27;;;;;;;2.60;2.40;;;;;;;10.64;95.70;99901.57;1681839;84;21035;-78
2022/09/24 06:23:54;;;;;;;3.45;2.50;;;;;;;10.74;95.43;99893.68;1692230;83;21046;-78
2022/09/24 06:26:20;;;;;;;1.57;1.52;;;;;;;10.84;95.20;99890.14;1699469;82;21053;-80
2022/09/24 06:28:46;;;;;;;2.37;2.17;;;;;;;11.02;94.64;99898.88;1628111;86;21153;-79
2022/09/24 06:31:14;;;;;;;1.85;1.75;;;;;;;11.19;93.46;99889.98;1653877;85;21046;-79
2022/09/24 06:33:41;;;;;;;1.95;1.85;;;;;;;11.34;92.50;99897.31;1633687;86;21517;-79
2022/09/24 06:36:08;;;;;;;1.50;1.40;;;;;;;11.47;91.20;99907.16;1643939;86;20999;-80
2022/09/24 06:38:38;;;;;;;3.25;1.85;;;;;;;11.55;90.52;99894.95;1648197;85;21101;-78
2022/09/24 06:41:05;;;;;;;1.35;1.35;;;;;;;11.64;90.26;99896.89;1668882;84;21011;-77
2022/09/24 06:43:32;;;;;;;2.95;1.35;;;;;;;11.75;89.47;99900.27;1669401;84;21519;-80
2022/09/24 06:46:00;;;;;;;1.25;1.15;;;;;;;11.89;88.09;99902.43;1646313;85;21060;-80
2022/09/24 06:48:28;;;;;;;1.27;1.15;;;;;;;11.99;86.60;99906.85;1650594;85;22104;-77
2022/09/24 06:50:55;;;;;;;1.77;1.67;;;;;;;12.08;86.27;99906.12;1628619;86;21106;-82
2022/09/24 06:53:21;;;;;;;2.00;1.15;;;;;;;12.13;85.12;99903.66;1647803;85;22165;-78
2022/09/24 06:55:48;;;;;;;1.37;0.82;;;;;;;12.19;85.62;99909.50;1641683;87;21129;-82
2022/09/24 06:58:19;;;;;;;1.15;1.05;;;;;;;12.32;84.43;99905.97;1664911;86;21034;-83
2022/09/24 07:00:57;;;;;;;1.20;1.10;;;;;;;12.42;83.56;99906.86;1661588;86;21091;-81
2022/09/24 07:03:26;;;;;;;1.60;1.00;;;;;;;12.50;82.99;99914.64;1643001;86;21123;-81
2022/09/24 07:05:52;;;;;;;1.42;1.32;;;;;;;12.58;82.89;99912.23;1622452;87;21057;-81
2022/09/24 07:08:20;;;;;;;1.25;1.10;;;;;;;12.64;83.50;99916.23;1615699;87;21685;-83
2022/09/24 07:10:48;;;;;;;1.22;1.05;;;;;;;12.74;82.96;99913.62;1666410;84;21037;-82
2022/09/24 07:13:16;;;;;;;1.00;0.90;;;;;;;12.81;82.09;99919.77;1616368;87;21018;-81
2022/09/24 07:15:44;;;;;;;1.12;1.02;;;;;;;12.85;81.43;99915.63;1600616;88;21082;-82
2022/09/24 07:18:11;;;;;;;1.32;1.20;;;;;;;12.79;81.35;99917.80;1609207;87;22519;-85
2022/09/24 07:20:38;;;;;;;1.55;1.30;;;;;;;12.74;81.59;99912.30;1592613;88;21023;-85
2022/09/24 07:23:08;;;;;;;2.52;1.25;;;;;;;12.74;80.83;99916.30;1613791;87;21052;-84
2022/09/24 07:25:37;;;;;;;1.67;1.22;;;;;;;12.76;80.79;99927.08;1612611;86;21106;-83
2022/09/24 07:28:11;;;;;;;1.37;1.17;;;;;;;12.82;80.36;99925.41;1607390;87;21072;-83
2022/09/24 07:30:39;;;;;;;1.00;0.90;;;;;;;12.76;79.22;99927.61;1642533;86;21090;-84
2022/09/24 07:33:07;;;;;;;1.92;0.80;;;;;;;12.70;79.74;99933.81;1638380;85;21061;-82
2022/09/24 07:35:36;;;;;;;1.62;1.00;;;;;;;12.66;79.48;99928.88;1680115;84;21096;-81
2022/09/24 07:38:06;;;;;;;0.65;0.65;;;;;;;12.69;79.77;99929.48;1663748;84;21087;-79
2022/09/24 07:40:34;;;;;;;1.57;1.45;;;;;;;12.68;79.41;99934.52;1663489;84;21503;-79
2022/09/24 07:43:01;;;;;;;1.35;1.25;;;;;;;12.59;79.28;99930.75;1662498;84;21109;-79
2022/09/24 07:45:28;;;;;;;1.10;1.10;;;;;;;12.43;79.40;99930.71;1672305;84;21010;-79
2022/09/24 07:48:04;;;;;;;1.00;0.90;;;;;;;12.35;80.09;99942.13;1608760;87;21085;-82
2022/09/24 07:50:34;;;;;;;1.45;1.27;;;;;;;12.34;79.48;99940.48;1614566;87;21034;-79
2022/09/24 07:53:00;;;;;;;1.00;0.80;;;;;;;12.37;79.28;99941.41;1626135;86;21594;-80
2022/09/24 07:55:27;;;;;;;1.25;1.07;;;;;;;12.45;78.61;99934.48;1641515;86;21092;-79
2022/09/24 07:57:54;;;;;;;;;;;;;;;12.52;78.83;99944.65;1699321;83;21097;-79
2022/09/24 08:00:23;;;;;;;1.20;1.10;;;;;;;12.64;78.34;99945.65;1700613;82;20489;-80
2022/09/24 08:02:50;;;;;;;2.35;0.60;;;;;;;12.70;78.49;99945.84;1692294;83;21505;-79
2022/09/24 08:05:18;;;;;;;1.05;1.05;;;;;;;12.79;78.20;99952.07;1682757;83;21155;-81
2022/09/24 08:07:54;;;;;;;0.70;0.70;;;;;;;12.87;77.42;99952.34;1670645;84;21117;-81
2022/09/24 08:10:25;;;;;;;1.05;0.95;;;;;;;12.93;77.38;99956.02;1682393;84;21052;-79
2022/09/24 08:12:53;;;;;;;1.30;1.20;;;;;;;12.97;77.06;99950.55;1669864;84;21548;-80
2022/09/24 08:15:21;;;;;;;0.82;0.82;;;;;;;12.97;76.39;99954.56;1668854;84;21166;-81
2022/09/24 08:17:48;;;;;;;3.33;0.90;;;;;;;13.00;76.84;99949.61;1667674;84;21085;-80
2022/09/24 08:20:14;;;;;;;;;;;;;;;13.06;76.39;99949.27;1710212;83;21657;-80
2022/09/24 08:22:41;;;;;;;1.05;0.72;;;;;;;13.11;76.25;99954.80;1670667;84;20115;-81
2022/09/24 08:25:07;;;;;;;1.20;1.15;;;;;;;13.14;75.29;99960.23;1615759;86;21024;-81
2022/09/24 08:27:36;;;;;;;0.60;0.45;;;;;;;13.22;75.40;99960.81;1640589;85;21672;-79
2022/09/24 08:30:05;;;;;;;0.50;0.50;;;;;;;13.21;73.88;99954.33;1636462;86;21009;-80
2022/09/24 08:32:31;;;;;;;0.62;0.55;;;;;;;13.15;74.27;99964.05;1646874;86;21162;-80
2022/09/24 08:34:57;;;;;;;;;;;;;;;13.09;72.50;99963.56;1672823;84;21034;-79
2022/09/24 08:37:25;;;;;;;2.92;0.65;;;;;;;13.07;73.65;99960.26;1654496;84;20452;-80
2022/09/24 08:39:51;;;;;;;2.45;0.70;;;;;;;13.05;73.42;99965.84;1640241;86;21068;-80
2022/09/24 08:42:33;;;;;;;0.53;0.53;;;;;;;13.16;73.80;99963.52;1633608;85;21672;-79
2022/09/24 08:47:53;;;;;;;;;;;;;;;13.48;73.13;99966.23;1659277;85;22076;-82
2022/09/24 08:50:24;;;;;;;1.95;0.55;;;;;;;13.58;71.65;99965.23;1678898;84;20137;-80
2022/09/24 08:53:06;;;;;;;1.45;1.35;;;;;;;13.56;71.85;99968.64;1679091;83;21053;-79
2022/09/24 08:55:46;;;;;;;2.40;1.82;;;;;;;13.56;71.53;99968.64;1683913;83;21053;-78
2022/09/24 08:58:58;;;;;;;1.02;0.93;;;;;;;13.57;71.07;99966.28;1675536;83;21517;-82
2022/09/24 09:01:35;;;;;;;1.30;0.80;;;;;;;13.57;70.11;99963.08;1671228;84;21061;-79
2022/09/24 09:04:28;;;;;;;0.40;0.40;;;;;;;13.38;69.87;99937.27;1665782;84;21004;-82
2022/09/24 09:07:06;;;;;;;0.30;0.30;;;;;;;13.48;68.71;99954.19;1673852;84;21053;-81
2022/09/24 09:09:53;;;;;;;0.50;0.40;;;;;;;13.55;69.58;99961.66;1641993;85;21477;-82
2022/09/24 09:12:39;;;;;;;0.83;0.60;;;;;;;13.62;68.57;99959.77;1637020;85;21096;-80
2022/09/24 09:15:11;;;;;;;0.95;0.72;;;;;;;13.71;69.12;99953.11;1659449;84;21565;-82
2022/09/24 09:17:55;;;;;;;0.60;0.60;;;;;;;13.71;68.86;99961.14;1662708;84;21089;-82
2022/09/24 09:20:29;;;;;;;1.05;0.80;;;;;;;13.68;68.68;99961.56;1669189;84;21014;-79
2022/09/24 09:23:01;;;;;;;0.68;0.60;;;;;;;13.64;68.82;99967.06;1663581;84;21513;-80
2022/09/24 09:25:32;;;;;;;0.60;0.60;;;;;;;13.58;69.04;99955.86;1667487;84;21054;-81
2022/09/24 09:28:14;;;;;;;0.50;0.50;;;;;;;13.49;69.34;99959.86;1667681;84;21530;-79
2022/09/24 09:30:52;;;;;;;1.55;0.62;;;;;;;13.44;69.39;99960.49;1648337;84;21540;-77
2022/09/24 09:33:55;;;;;;;0.60;0.60;;;;;;;13.47;69.63;99959.23;1615929;86;21097;-79
2022/09/24 09:37:08;;;;;;;0.72;0.72;;;;;;;13.44;67.97;99951.12;1646480;86;21184;-82
2022/09/24 09:39:56;;;;;;;2.25;0.72;;;;;;;13.39;68.56;99947.77;1590934;88;21061;-83
2022/09/24 09:42:34;;;;;;;0.40;0.40;;;;;;;13.41;68.35;99960.42;1596595;88;21111;-83
2022/09/24 09:45:24;;;;;;;0.80;0.80;;;;;;;13.47;69.01;99957.89;1623701;86;21127;-83
2022/09/24 09:47:54;;;;;;;0.50;0.50;;;;;;;13.50;68.91;99954.27;1580548;89;21612;-83
2022/09/24 09:50:39;;;;;;;2.95;0.57;;;;;;;13.52;68.63;99948.17;1655039;85;21676;-83
2022/09/24 09:53:22;;;;;;;0.95;0.40;;;;;;;13.57;69.36;99959.59;1657667;85;21037;-83
2022/09/24 09:55:58;;;;;;;0.93;0.50;;;;;;;13.65;68.20;99957.16;1660743;85;21015;-81
2022/09/24 09:58:34;;;;;;;4.10;0.50;;;;;;;13.68;68.01;99952.72;1627689;86;21507;-83
2022/09/24 10:01:17;;;;;;;1.37;0.37;;;;;;;13.63;66.87;99956.03;1652433;85;21532;-86
2022/09/24 10:03:48;;;;;;;1.20;0.68;;;;;;;13.61;65.79;99950.08;1644746;85;21074;-85
2022/09/24 10:06:27;;;;;;;0.35;0.30;;;;;;;13.58;65.26;99958.53;1672768;84;21015;-83
2022/09/24 10:09:18;;;;;;;1.37;0.60;;;;;;;13.54;64.49;99953.31;1660840;84;21120;-85
2022/09/24 10:11:46;;;;;;;0.50;0.45;;;;;;;13.50;64.48;99946.23;1677434;84;21028;-82
2022/09/24 10:14:18;;;;;;;0.40;0.40;;;;;;;13.52;64.50;99950.84;1627351;87;21026;-83
2022/09/24 10:16:50;;;;;;;1.42;0.82;;;;;;;13.60;65.69;99946.59;1656118;84;21478;-83
2022/09/24 10:19:25;;;;;;;1.40;0.37;;;;;;;13.74;65.13;99943.80;1667231;85;21037;-84
2022/09/24 10:21:55;;;;;;;0.75;0.20;;;;;;;13.83;64.38;99939.81;1700498;83;21806;-82
2022/09/24 10:24:25;;;;;;;0.42;0.25;;;;;;;13.88;63.59;99940.48;1695814;84;21548;-83
2022/09/24 10:26:53;;;;;;;0.35;0.30;;;;;;;13.83;62.74;99935.80;1682640;84;21029;-83
2022/09/24 10:32:21;;;;;;;0.62;0.57;;;;;;;13.68;63.97;99948.17;1711410;83;21576;-84
2022/09/24 10:34:56;;;;;;;0.50;0.40;;;;;;;13.75;63.76;99940.91;1688991;85;21085;-83
2022/09/24 10:37:22;;;;;;;1.05;0.33;;;;;;;13.86;62.95;99947.39;1681197;84;21041;-85
2022/09/24 10:39:59;;;;;;;0.40;0.40;;;;;;;14.00;62.83;99936.86;1652802;85;21003;-82
2022/09/24 10:42:29;;;;;;;0.93;0.25;;;;;;;14.14;62.77;99939.41;1685829;83;21662;-85
2022/09/24 10:45:03;;;;;;;0.70;0.30;;;;;;;14.20;62.78;99942.05;1685933;83;21606;-82
2022/09/24 10:47:39;;;;;;;1.15;0.35;;;;;;;14.17;62.90;99949.17;1660374;83;21166;-83
2022/09/24 10:50:20;;;;;;;2.08;0.37;;;;;;;14.13;62.22;99954.69;1690426;83;21494;-79
2022/09/24 10:52:52;;;;;;;0.45;0.45;;;;;;;14.13;62.69;99950.66;1676899;83;21544;-83
2022/09/24 10:55:44;;;;;;;0.68;0.30;;;;;;;14.13;63.31;99947.98;1648942;85;21079;-85
2022/09/24 11:00:39;;;;;;;0.47;0.40;;;;;;;13.99;62.28;99949.14;1868054;75;22455;-83
2022/09/24 11:03:30;;;;;;;1.02;0.28;;;;;;;13.79;63.68;99954.16;1800648;77;21074;-84
2022/09/24 11:06:18;;;;;;;0.40;0.40;;;;;;;13.72;64.69;99957.41;1727693;80;21161;-84
2022/09/24 11:09:26;;;;;;;0.35;0.33;;;;;;;13.70;64.37;99949.30;1760278;78;21521;-85
2022/09/24 11:12:22;;;;;;;3.55;0.60;;;;;;;13.66;64.03;99955.61;1763864;78;21210;-84
2022/09/24 11:15:18;;;;;;;0.35;0.35;;;;;;;13.67;64.86;99962.59;1795419;78;21004;-84
2022/09/24 11:18:19;;;;;;;1.12;0.62;;;;;;;13.68;65.59;99956.73;1776492;78;21616;-85
2022/09/24 11:20:54;;;;;;;0.30;0.30;;;;;;;13.70;64.63;99950.11;1775469;78;21017;-82
2022/09/24 11:23:32;;;;;;;0.45;0.45;;;;;;;13.71;63.80;99955.78;1766700;78;21113;-85
2022/09/24 11:26:31;;;;;;;0.50;0.40;;;;;;;13.73;62.84;99949.69;1767836;79;21007;-82
2022/09/24 11:29:12;;;;;;;0.50;0.30;;;;;;;13.75;62.83;99948.95;1764134;79;21568;-87
2022/09/24 11:31:47;;;;;;;0.62;0.20;;;;;;;13.75;62.24;99948.95;1775195;79;21479;-84
2022/09/24 11:34:38;;;;;;;0.30;0.30;;;;;;;13.69;62.65;99957.83;1790023;78;21089;-83
2022/09/24 11:37:37;;;;;;;1.55;0.65;;;;;;;13.68;63.19;99952.19;1784561;78;21078;-82
2022/09/24 11:40:43;;;;;;;0.30;0.30;;;;;;;13.66;63.32;99950.78;1769055;79;20992;-84
2022/09/24 11:43:21;;;;;;;0.98;0.53;;;;;;;13.59;62.84;99950.81;1769929;79;20993;-83
2022/09/24 11:46:02;;;;;;;0.37;0.30;;;;;;;13.56;63.03;99948.56;1775075;79;20989;-84
2022/09/24 11:49:04;;;;;;;0.65;0.65;;;;;;;13.52;63.25;99952.19;1778598;79;21513;-82
2022/09/24 11:51:51;;;;;;;0.25;0.25;;;;;;;13.48;63.43;99947.50;1760645;79;21030;-85
2022/09/24 11:54:38;;;;;;;0.57;0.57;;;;;;;13.49;63.79;99953.17;1782877;78;21538;-84
2022/09/24 11:57:15;;;;;;;0.88;0.50;;;;;;;13.48;64.18;99949.64;1786203;78;20994;-83
2022/09/24 12:00:06;;;;;;;0.68;0.23;;;;;;;13.51;63.90;99953.77;1801159;78;21141;-83
2022/09/24 12:03:11;;;;;;;1.55;0.37;;;;;;;13.44;64.31;99953.27;1782163;78;21053;-83
2022/09/24 12:05:50;;;;;;;0.70;0.70;;;;;;;13.33;65.12;99956.64;1766706;78;21018;-81
2022/09/24 12:08:26;;;;;;;0.75;0.57;;;;;;;13.25;66.30;99964.91;1815161;78;20999;-85
2022/09/24 12:10:59;;;;;;;0.40;0.40;;;;;;;13.14;68.99;99946.86;1794751;78;21589;-83
2022/09/24 12:13:43;;;;;;;0.60;0.33;;;;;;;13.02;70.48;99978.30;1794868;77;20995;-84
2022/09/24 12:16:26;;;;;;;0.20;0.20;;;;;;;12.84;70.54;99982.99;1791215;78;22136;-81